Portada
METAR-TAF:

METAR-TAF

Aeropuertos :

Bergerac, Francia

latitud: 44-49N, longitud: 000-31E, altitud: 51 m

Observación

El informe se hizo hace 22 minutos, a las 19:30 UTC
Viento 3 kt del este-noreste
Temperatura 3°C
Humedad 93%
Presión 1019 hPa
Visibilidad: 6000 m

METAR: LFBE 291930Z AUTO 06003KT 6000 NSC 03/02 Q1019 NOSIG

Hora: 20:52 (19:52 UTC)

Pronóstico

El informe se hizo hace 2 horas y 52 minutos, a las 17:00 UTC
Pronóstico válido del 29 a las 18 UTC al 30 a las 18 UTC
Viento 4 kt del norte-noroeste
Visibilidad 10 km o más
sin nubes por debajo de 1500 m y sin presencia de cumulonimbus.
Temporalmente
del 30 a las 02 UTC al 30 a las 08 UTC
Visibilidad: 1500 m
Niebla baja

TAF: LFBE 291700Z 2918/3018 34004KT CAVOK TEMPO 3002/3008 1500 MIFG

Observaciones y pronósticos meteorológicos de más de 4000 aeropuertos (mensajes METAR y TAF).

Los puntos amarillos y rojos representan las estaciones disponibles.

Ponga el ratón en el punto deseado para ver el nombre de la estación.

Haga clic para ver las observaciones y los pronósticos meteorológicos.

Para cambiar el mapa : haga clic en los botones verdes con una cruz de color negro para hacer un zoom, en el botón verde con un guión para alejar o en las flechas verdes para mapas adyacentes.


METAR-TAF: